sensor_id;sensor_type;location;lat;lon;timestamp;P1;durP1;ratioP1;P2;durP2;ratioP2
8074;SDS011;4080;42.676;23.372;2023-12-20T00:01:17;88.93;;;55.23;;
8074;SDS011;4080;42.676;23.372;2023-12-20T00:03:44;106.97;;;65.07;;
8074;SDS011;4080;42.676;23.372;2023-12-20T00:06:11;103.23;;;63.10;;
8074;SDS011;4080;42.676;23.372;2023-12-20T00:08:40;87.80;;;56.37;;
8074;SDS011;4080;42.676;23.372;2023-12-20T00:11:06;78.47;;;49.60;;
8074;SDS011;4080;42.676;23.372;2023-12-20T00:13:33;81.20;;;48.00;;
8074;SDS011;4080;42.676;23.372;2023-12-20T00:16:02;71.40;;;45.97;;
8074;SDS011;4080;42.676;23.372;2023-12-20T00:18:29;72.60;;;46.97;;
8074;SDS011;4080;42.676;23.372;2023-12-20T00:20:56;69.70;;;44.60;;
8074;SDS011;4080;42.676;23.372;2023-12-20T00:23:23;74.43;;;46.87;;
8074;SDS011;4080;42.676;23.372;2023-12-20T00:25:50;101.97;;;61.83;;
8074;SDS011;4080;42.676;23.372;2023-12-20T00:28:17;98.17;;;59.47;;
8074;SDS011;4080;42.676;23.372;2023-12-20T00:30:44;94.87;;;58.37;;
8074;SDS011;4080;42.676;23.372;2023-12-20T00:33:12;62.73;;;39.30;;
8074;SDS011;4080;42.676;23.372;2023-12-20T00:35:39;83.07;;;50.27;;
8074;SDS011;4080;42.676;23.372;2023-12-20T00:40:51;244.40;;;123.83;;
8074;SDS011;4080;42.676;23.372;2023-12-20T00:43:18;269.40;;;137.83;;
8074;SDS011;4080;42.676;23.372;2023-12-20T00:45:45;290.63;;;146.50;;
8074;SDS011;4080;42.676;23.372;2023-12-20T00:48:13;284.10;;;147.37;;
8074;SDS011;4080;42.676;23.372;2023-12-20T00:50:40;311.10;;;155.57;;
8074;SDS011;4080;42.676;23.372;2023-12-20T00:53:07;318.60;;;155.23;;
8074;SDS011;4080;42.676;23.372;2023-12-20T00:55:34;292.97;;;144.57;;
8074;SDS011;4080;42.676;23.372;2023-12-20T00:58:01;300.87;;;149.50;;
8074;SDS011;4080;42.676;23.372;2023-12-20T01:00:28;296.47;;;147.83;;
8074;SDS011;4080;42.676;23.372;2023-12-20T01:02:54;461.63;;;174.70;;
8074;SDS011;4080;42.676;23.372;2023-12-20T01:05:23;304.90;;;144.90;;
8074;SDS011;4080;42.676;23.372;2023-12-20T01:07:50;360.73;;;147.20;;
8074;SDS011;4080;42.676;23.372;2023-12-20T01:10:16;294.47;;;141.13;;
8074;SDS011;4080;42.676;23.372;2023-12-20T01:12:44;403.07;;;150.90;;
8074;SDS011;4080;42.676;23.372;2023-12-20T01:15:11;463.60;;;150.77;;
8074;SDS011;4080;42.676;23.372;2023-12-20T01:17:38;292.07;;;134.50;;
8074;SDS011;4080;42.676;23.372;2023-12-20T01:20:04;292.67;;;135.57;;
8074;SDS011;4080;42.676;23.372;2023-12-20T01:22:33;336.90;;;132.87;;
8074;SDS011;4080;42.676;23.372;2023-12-20T01:25:01;408.70;;;134.80;;
8074;SDS011;4080;42.676;23.372;2023-12-20T01:27:28;397.13;;;128.07;;
8074;SDS011;4080;42.676;23.372;2023-12-20T01:29:56;344.63;;;117.07;;
8074;SDS011;4080;42.676;23.372;2023-12-20T01:32:23;245.53;;;117.53;;
8074;SDS011;4080;42.676;23.372;2023-12-20T01:34:50;349.43;;;123.10;;
8074;SDS011;4080;42.676;23.372;2023-12-20T01:37:16;328.03;;;121.97;;
8074;SDS011;4080;42.676;23.372;2023-12-20T01:39:45;269.50;;;118.67;;
8074;SDS011;4080;42.676;23.372;2023-12-20T01:42:12;397.53;;;130.03;;
8074;SDS011;4080;42.676;23.372;2023-12-20T01:44:38;254.83;;;120.23;;
8074;SDS011;4080;42.676;23.372;2023-12-20T01:47:05;243.63;;;119.33;;
8074;SDS011;4080;42.676;23.372;2023-12-20T01:49:33;316.90;;;115.33;;
8074;SDS011;4080;42.676;23.372;2023-12-20T01:52:00;209.73;;;113.63;;
8074;SDS011;4080;42.676;23.372;2023-12-20T01:54:27;233.07;;;113.60;;
8074;SDS011;4080;42.676;23.372;2023-12-20T01:56:56;219.03;;;116.60;;
8074;SDS011;4080;42.676;23.372;2023-12-20T01:59:23;251.57;;;119.20;;
8074;SDS011;4080;42.676;23.372;2023-12-20T02:01:50;246.67;;;114.00;;
8074;SDS011;4080;42.676;23.372;2023-12-20T02:04:17;197.53;;;108.37;;
8074;SDS011;4080;42.676;23.372;2023-12-20T02:06:44;221.70;;;121.33;;
8074;SDS011;4080;42.676;23.372;2023-12-20T02:09:12;208.23;;;115.90;;
8074;SDS011;4080;42.676;23.372;2023-12-20T02:11:40;214.07;;;108.73;;
8074;SDS011;4080;42.676;23.372;2023-12-20T02:14:08;203.57;;;111.00;;
8074;SDS011;4080;42.676;23.372;2023-12-20T02:16:35;205.70;;;106.13;;
8074;SDS011;4080;42.676;23.372;2023-12-20T02:19:03;225.63;;;94.77;;
8074;SDS011;4080;42.676;23.372;2023-12-20T02:21:35;195.20;;;101.83;;
8074;SDS011;4080;42.676;23.372;2023-12-20T02:24:02;161.33;;;93.23;;
8074;SDS011;4080;42.676;23.372;2023-12-20T02:26:29;163.43;;;96.53;;
8074;SDS011;4080;42.676;23.372;2023-12-20T02:28:58;179.00;;;97.83;;
8074;SDS011;4080;42.676;23.372;2023-12-20T02:31:26;173.37;;;96.47;;
8074;SDS011;4080;42.676;23.372;2023-12-20T02:33:53;164.47;;;96.70;;
8074;SDS011;4080;42.676;23.372;2023-12-20T02:36:20;167.23;;;97.07;;
8074;SDS011;4080;42.676;23.372;2023-12-20T02:38:48;168.73;;;96.63;;
8074;SDS011;4080;42.676;23.372;2023-12-20T02:41:15;203.93;;;98.33;;
8074;SDS011;4080;42.676;23.372;2023-12-20T02:43:43;163.73;;;89.10;;
8074;SDS011;4080;42.676;23.372;2023-12-20T02:46:10;158.40;;;87.70;;
8074;SDS011;4080;42.676;23.372;2023-12-20T02:48:38;166.13;;;86.17;;
8074;SDS011;4080;42.676;23.372;2023-12-20T02:51:03;169.10;;;86.80;;
8074;SDS011;4080;42.676;23.372;2023-12-20T02:53:30;155.00;;;81.10;;
8074;SDS011;4080;42.676;23.372;2023-12-20T02:55:59;159.00;;;74.57;;
8074;SDS011;4080;42.676;23.372;2023-12-20T02:58:26;159.80;;;74.97;;
8074;SDS011;4080;42.676;23.372;2023-12-20T03:00:52;165.20;;;74.80;;
8074;SDS011;4080;42.676;23.372;2023-12-20T03:03:19;174.07;;;72.30;;
8074;SDS011;4080;42.676;23.372;2023-12-20T03:05:46;131.70;;;70.10;;
8074;SDS011;4080;42.676;23.372;2023-12-20T03:08:13;164.30;;;71.73;;
8074;SDS011;4080;42.676;23.372;2023-12-20T03:10:40;159.70;;;68.17;;
8074;SDS011;4080;42.676;23.372;2023-12-20T03:13:08;156.97;;;62.77;;
8074;SDS011;4080;42.676;23.372;2023-12-20T03:15:35;182.83;;;79.53;;
8074;SDS011;4080;42.676;23.372;2023-12-20T03:18:02;158.90;;;72.87;;
8074;SDS011;4080;42.676;23.372;2023-12-20T03:20:29;159.90;;;74.43;;
8074;SDS011;4080;42.676;23.372;2023-12-20T03:22:59;147.00;;;68.40;;
8074;SDS011;4080;42.676;23.372;2023-12-20T03:25:26;168.10;;;72.23;;
8074;SDS011;4080;42.676;23.372;2023-12-20T03:27:53;185.23;;;74.87;;
8074;SDS011;4080;42.676;23.372;2023-12-20T03:30:21;159.07;;;69.03;;
8074;SDS011;4080;42.676;23.372;2023-12-20T03:32:48;120.50;;;65.23;;
8074;SDS011;4080;42.676;23.372;2023-12-20T03:35:15;143.00;;;67.27;;
8074;SDS011;4080;42.676;23.372;2023-12-20T03:37:42;153.60;;;64.23;;
8074;SDS011;4080;42.676;23.372;2023-12-20T03:40:09;156.03;;;69.00;;
8074;SDS011;4080;42.676;23.372;2023-12-20T03:42:37;142.00;;;63.73;;
8074;SDS011;4080;42.676;23.372;2023-12-20T03:45:04;171.17;;;64.20;;
8074;SDS011;4080;42.676;23.372;2023-12-20T03:47:33;136.90;;;54.03;;
8074;SDS011;4080;42.676;23.372;2023-12-20T03:50:00;158.90;;;64.07;;
8074;SDS011;4080;42.676;23.372;2023-12-20T03:52:27;138.70;;;58.23;;
8074;SDS011;4080;42.676;23.372;2023-12-20T03:54:54;99.83;;;53.27;;
8074;SDS011;4080;42.676;23.372;2023-12-20T03:57:21;136.93;;;59.40;;
8074;SDS011;4080;42.676;23.372;2023-12-20T03:59:48;127.03;;;58.23;;
8074;SDS011;4080;42.676;23.372;2023-12-20T04:02:15;171.80;;;61.90;;
8074;SDS011;4080;42.676;23.372;2023-12-20T04:04:44;118.70;;;61.73;;
8074;SDS011;4080;42.676;23.372;2023-12-20T04:07:11;132.30;;;62.83;;
8074;SDS011;4080;42.676;23.372;2023-12-20T04:09:38;154.80;;;67.07;;
8074;SDS011;4080;42.676;23.372;2023-12-20T04:12:06;180.37;;;64.30;;
8074;SDS011;4080;42.676;23.372;2023-12-20T04:14:33;132.00;;;61.17;;
8074;SDS011;4080;42.676;23.372;2023-12-20T04:17:00;195.33;;;67.43;;
8074;SDS011;4080;42.676;23.372;2023-12-20T04:19:27;151.33;;;66.03;;
8074;SDS011;4080;42.676;23.372;2023-12-20T04:21:56;132.23;;;62.40;;
8074;SDS011;4080;42.676;23.372;2023-12-20T04:24:22;229.63;;;66.27;;
8074;SDS011;4080;42.676;23.372;2023-12-20T04:26:49;168.73;;;60.13;;
8074;SDS011;4080;42.676;23.372;2023-12-20T04:29:16;233.53;;;68.03;;
8074;SDS011;4080;42.676;23.372;2023-12-20T04:31:43;346.90;;;72.73;;
8074;SDS011;4080;42.676;23.372;2023-12-20T04:34:10;277.23;;;67.27;;
8074;SDS011;4080;42.676;23.372;2023-12-20T04:36:37;162.67;;;67.97;;
8074;SDS011;4080;42.676;23.372;2023-12-20T04:39:05;191.20;;;66.90;;
8074;SDS011;4080;42.676;23.372;2023-12-20T04:41:32;156.07;;;64.57;;
8074;SDS011;4080;42.676;23.372;2023-12-20T04:43:59;170.97;;;60.03;;
8074;SDS011;4080;42.676;23.372;2023-12-20T04:46:27;113.87;;;58.40;;
8074;SDS011;4080;42.676;23.372;2023-12-20T04:48:54;150.97;;;61.13;;
8074;SDS011;4080;42.676;23.372;2023-12-20T04:51:21;210.33;;;62.80;;
8074;SDS011;4080;42.676;23.372;2023-12-20T04:53:48;212.20;;;60.97;;
8074;SDS011;4080;42.676;23.372;2023-12-20T04:56:17;182.60;;;59.87;;
8074;SDS011;4080;42.676;23.372;2023-12-20T04:58:43;132.00;;;56.60;;
8074;SDS011;4080;42.676;23.372;2023-12-20T05:01:10;159.57;;;56.23;;
8074;SDS011;4080;42.676;23.372;2023-12-20T05:03:38;184.97;;;59.77;;
8074;SDS011;4080;42.676;23.372;2023-12-20T05:06:05;178.47;;;55.83;;
8074;SDS011;4080;42.676;23.372;2023-12-20T05:08:31;173.30;;;51.00;;
8074;SDS011;4080;42.676;23.372;2023-12-20T05:10:58;188.73;;;55.20;;
8074;SDS011;4080;42.676;23.372;2023-12-20T05:13:27;148.13;;;52.00;;
8074;SDS011;4080;42.676;23.372;2023-12-20T05:15:54;212.10;;;50.30;;
8074;SDS011;4080;42.676;23.372;2023-12-20T05:18:21;134.23;;;48.93;;
8074;SDS011;4080;42.676;23.372;2023-12-20T05:20:48;132.47;;;48.50;;
8074;SDS011;4080;42.676;23.372;2023-12-20T05:23:15;88.43;;;42.77;;
8074;SDS011;4080;42.676;23.372;2023-12-20T05:25:42;108.27;;;48.33;;
8074;SDS011;4080;42.676;23.372;2023-12-20T05:28:09;147.37;;;46.27;;
8074;SDS011;4080;42.676;23.372;2023-12-20T05:30:37;125.03;;;44.10;;
8074;SDS011;4080;42.676;23.372;2023-12-20T05:33:04;120.67;;;42.00;;
8074;SDS011;4080;42.676;23.372;2023-12-20T05:35:31;90.43;;;39.23;;
8074;SDS011;4080;42.676;23.372;2023-12-20T05:37:58;119.10;;;43.07;;
8074;SDS011;4080;42.676;23.372;2023-12-20T05:40:25;78.20;;;40.23;;
8074;SDS011;4080;42.676;23.372;2023-12-20T05:42:52;110.13;;;42.37;;
8074;SDS011;4080;42.676;23.372;2023-12-20T05:45:19;127.07;;;45.40;;
8074;SDS011;4080;42.676;23.372;2023-12-20T05:47:47;102.53;;;45.57;;
8074;SDS011;4080;42.676;23.372;2023-12-20T05:50:14;84.00;;;42.60;;
8074;SDS011;4080;42.676;23.372;2023-12-20T05:52:41;106.70;;;39.97;;
8074;SDS011;4080;42.676;23.372;2023-12-20T05:55:08;93.40;;;40.53;;
8074;SDS011;4080;42.676;23.372;2023-12-20T05:57:35;112.77;;;39.33;;
8074;SDS011;4080;42.676;23.372;2023-12-20T06:00:02;94.43;;;38.87;;
8074;SDS011;4080;42.676;23.372;2023-12-20T06:02:29;95.97;;;37.13;;
8074;SDS011;4080;42.676;23.372;2023-12-20T06:04:57;91.57;;;36.27;;
8074;SDS011;4080;42.676;23.372;2023-12-20T06:07:24;122.63;;;38.10;;
8074;SDS011;4080;42.676;23.372;2023-12-20T06:09:51;131.27;;;38.97;;
8074;SDS011;4080;42.676;23.372;2023-12-20T06:12:18;108.73;;;38.43;;
8074;SDS011;4080;42.676;23.372;2023-12-20T06:14:45;122.20;;;41.47;;
8074;SDS011;4080;42.676;23.372;2023-12-20T06:17:12;97.43;;;38.57;;
8074;SDS011;4080;42.676;23.372;2023-12-20T06:19:39;120.70;;;37.37;;
8074;SDS011;4080;42.676;23.372;2023-12-20T06:22:09;144.87;;;37.97;;
8074;SDS011;4080;42.676;23.372;2023-12-20T06:24:36;156.50;;;39.43;;
8074;SDS011;4080;42.676;23.372;2023-12-20T06:27:03;105.83;;;37.50;;
8074;SDS011;4080;42.676;23.372;2023-12-20T06:29:30;163.77;;;37.23;;
8074;SDS011;4080;42.676;23.372;2023-12-20T06:31:57;136.47;;;34.63;;
8074;SDS011;4080;42.676;23.372;2023-12-20T06:34:24;115.80;;;41.33;;
8074;SDS011;4080;42.676;23.372;2023-12-20T06:36:51;140.63;;;34.53;;
8074;SDS011;4080;42.676;23.372;2023-12-20T06:39:18;122.03;;;36.67;;
8074;SDS011;4080;42.676;23.372;2023-12-20T06:41:45;121.23;;;36.73;;
8074;SDS011;4080;42.676;23.372;2023-12-20T06:44:12;142.23;;;36.93;;
8074;SDS011;4080;42.676;23.372;2023-12-20T06:46:38;172.00;;;40.63;;
8074;SDS011;4080;42.676;23.372;2023-12-20T06:49:05;159.57;;;43.83;;
8074;SDS011;4080;42.676;23.372;2023-12-20T06:51:32;84.97;;;39.17;;
8074;SDS011;4080;42.676;23.372;2023-12-20T06:53:59;81.27;;;36.50;;
8074;SDS011;4080;42.676;23.372;2023-12-20T06:56:29;92.90;;;39.23;;
8074;SDS011;4080;42.676;23.372;2023-12-20T06:58:56;101.97;;;37.93;;
8074;SDS011;4080;42.676;23.372;2023-12-20T07:01:23;120.83;;;42.10;;
8074;SDS011;4080;42.676;23.372;2023-12-20T07:03:49;100.03;;;46.80;;
8074;SDS011;4080;42.676;23.372;2023-12-20T07:06:16;101.67;;;38.97;;
8074;SDS011;4080;42.676;23.372;2023-12-20T07:08:44;80.13;;;39.17;;
8074;SDS011;4080;42.676;23.372;2023-12-20T07:11:11;80.10;;;38.53;;
8074;SDS011;4080;42.676;23.372;2023-12-20T07:13:39;75.33;;;39.23;;
8074;SDS011;4080;42.676;23.372;2023-12-20T07:16:06;98.40;;;40.70;;
8074;SDS011;4080;42.676;23.372;2023-12-20T07:18:33;97.67;;;38.70;;
8074;SDS011;4080;42.676;23.372;2023-12-20T07:21:00;108.83;;;39.47;;
8074;SDS011;4080;42.676;23.372;2023-12-20T07:23:27;101.60;;;38.00;;
8074;SDS011;4080;42.676;23.372;2023-12-20T07:25:54;77.47;;;36.53;;
8074;SDS011;4080;42.676;23.372;2023-12-20T07:28:21;80.30;;;39.20;;
8074;SDS011;4080;42.676;23.372;2023-12-20T07:30:49;69.00;;;37.20;;
8074;SDS011;4080;42.676;23.372;2023-12-20T07:33:16;75.87;;;39.30;;
8074;SDS011;4080;42.676;23.372;2023-12-20T07:35:43;71.10;;;37.90;;
8074;SDS011;4080;42.676;23.372;2023-12-20T07:38:10;76.27;;;39.03;;
8074;SDS011;4080;42.676;23.372;2023-12-20T07:40:38;87.53;;;39.47;;
8074;SDS011;4080;42.676;23.372;2023-12-20T07:43:05;70.10;;;36.03;;
8074;SDS011;4080;42.676;23.372;2023-12-20T07:45:32;90.50;;;39.17;;
8074;SDS011;4080;42.676;23.372;2023-12-20T07:48:00;73.00;;;39.17;;
8074;SDS011;4080;42.676;23.372;2023-12-20T07:50:27;82.50;;;38.40;;
8074;SDS011;4080;42.676;23.372;2023-12-20T07:52:54;75.10;;;38.33;;
8074;SDS011;4080;42.676;23.372;2023-12-20T07:55:21;111.73;;;52.37;;
8074;SDS011;4080;42.676;23.372;2023-12-20T07:57:48;104.93;;;41.70;;
8074;SDS011;4080;42.676;23.372;2023-12-20T08:00:15;82.03;;;42.00;;
8074;SDS011;4080;42.676;23.372;2023-12-20T08:02:43;103.20;;;43.93;;
8074;SDS011;4080;42.676;23.372;2023-12-20T08:05:11;94.57;;;45.20;;
8074;SDS011;4080;42.676;23.372;2023-12-20T08:09:10;108.50;;;46.93;;
8074;SDS011;4080;42.676;23.372;2023-12-20T08:11:38;95.67;;;45.07;;
8074;SDS011;4080;42.676;23.372;2023-12-20T08:14:05;109.87;;;45.97;;
8074;SDS011;4080;42.676;23.372;2023-12-20T08:16:32;96.37;;;45.80;;
8074;SDS011;4080;42.676;23.372;2023-12-20T08:18:58;104.27;;;46.00;;
8074;SDS011;4080;42.676;23.372;2023-12-20T08:21:25;97.87;;;44.50;;
8074;SDS011;4080;42.676;23.372;2023-12-20T08:23:52;111.63;;;44.10;;
8074;SDS011;4080;42.676;23.372;2023-12-20T08:26:21;96.17;;;43.07;;
8074;SDS011;4080;42.676;23.372;2023-12-20T08:28:48;100.77;;;42.13;;
8074;SDS011;4080;42.676;23.372;2023-12-20T08:31:15;116.50;;;44.80;;
8074;SDS011;4080;42.676;23.372;2023-12-20T08:33:43;100.47;;;43.67;;
8074;SDS011;4080;42.676;23.372;2023-12-20T08:36:10;131.27;;;43.93;;
8074;SDS011;4080;42.676;23.372;2023-12-20T08:38:37;102.90;;;41.73;;
8074;SDS011;4080;42.676;23.372;2023-12-20T08:41:04;118.07;;;42.63;;
8074;SDS011;4080;42.676;23.372;2023-12-20T08:43:33;112.40;;;40.53;;
8074;SDS011;4080;42.676;23.372;2023-12-20T08:46:01;120.87;;;40.43;;
8074;SDS011;4080;42.676;23.372;2023-12-20T08:48:28;172.50;;;41.27;;
8074;SDS011;4080;42.676;23.372;2023-12-20T08:50:55;97.20;;;40.30;;
8074;SDS011;4080;42.676;23.372;2023-12-20T08:53:22;87.73;;;41.87;;
8074;SDS011;4080;42.676;23.372;2023-12-20T08:55:50;127.83;;;39.60;;
8074;SDS011;4080;42.676;23.372;2023-12-20T08:58:17;104.47;;;42.23;;
8074;SDS011;4080;42.676;23.372;2023-12-20T09:00:45;109.13;;;42.47;;
8074;SDS011;4080;42.676;23.372;2023-12-20T09:03:12;107.77;;;44.23;;
8074;SDS011;4080;42.676;23.372;2023-12-20T09:05:39;100.27;;;43.83;;
8074;SDS011;4080;42.676;23.372;2023-12-20T09:08:06;109.13;;;46.63;;
8074;SDS011;4080;42.676;23.372;2023-12-20T09:10:35;120.63;;;45.30;;
8074;SDS011;4080;42.676;23.372;2023-12-20T09:13:02;97.77;;;44.90;;
8074;SDS011;4080;42.676;23.372;2023-12-20T09:15:29;106.10;;;44.87;;
8074;SDS011;4080;42.676;23.372;2023-12-20T09:18:01;106.23;;;43.03;;
8074;SDS011;4080;42.676;23.372;2023-12-20T09:20:28;117.27;;;45.20;;
8074;SDS011;4080;42.676;23.372;2023-12-20T09:22:55;145.90;;;44.53;;
8074;SDS011;4080;42.676;23.372;2023-12-20T09:25:22;107.43;;;43.03;;
8074;SDS011;4080;42.676;23.372;2023-12-20T09:27:51;146.20;;;44.53;;
8074;SDS011;4080;42.676;23.372;2023-12-20T09:30:18;130.10;;;42.43;;
8074;SDS011;4080;42.676;23.372;2023-12-20T09:32:45;117.60;;;44.90;;
8074;SDS011;4080;42.676;23.372;2023-12-20T09:35:13;132.90;;;46.83;;
8074;SDS011;4080;42.676;23.372;2023-12-20T09:37:41;127.90;;;46.53;;
8074;SDS011;4080;42.676;23.372;2023-12-20T09:40:11;113.77;;;45.73;;
8074;SDS011;4080;42.676;23.372;2023-12-20T09:42:43;126.57;;;44.13;;
8074;SDS011;4080;42.676;23.372;2023-12-20T09:45:16;107.17;;;39.97;;
8074;SDS011;4080;42.676;23.372;2023-12-20T09:47:48;105.23;;;43.13;;
8074;SDS011;4080;42.676;23.372;2023-12-20T09:50:17;100.20;;;42.03;;
8074;SDS011;4080;42.676;23.372;2023-12-20T09:52:47;105.77;;;43.47;;
8074;SDS011;4080;42.676;23.372;2023-12-20T09:55:17;94.07;;;43.87;;
8074;SDS011;4080;42.676;23.372;2023-12-20T09:57:45;95.53;;;45.27;;
8074;SDS011;4080;42.676;23.372;2023-12-20T10:00:12;108.63;;;46.23;;
8074;SDS011;4080;42.676;23.372;2023-12-20T10:02:42;91.17;;;44.27;;
8074;SDS011;4080;42.676;23.372;2023-12-20T10:05:15;107.20;;;48.13;;
8074;SDS011;4080;42.676;23.372;2023-12-20T10:07:45;96.83;;;46.73;;
8074;SDS011;4080;42.676;23.372;2023-12-20T10:10:13;100.73;;;44.63;;
8074;SDS011;4080;42.676;23.372;2023-12-20T10:12:40;106.60;;;47.07;;
8074;SDS011;4080;42.676;23.372;2023-12-20T10:15:06;120.40;;;58.40;;
8074;SDS011;4080;42.676;23.372;2023-12-20T10:17:35;147.53;;;79.13;;
8074;SDS011;4080;42.676;23.372;2023-12-20T10:20:03;176.33;;;96.33;;
8074;SDS011;4080;42.676;23.372;2023-12-20T10:22:36;103.97;;;48.00;;
8074;SDS011;4080;42.676;23.372;2023-12-20T10:25:04;91.07;;;46.63;;
8074;SDS011;4080;42.676;23.372;2023-12-20T10:27:32;93.13;;;47.33;;
8074;SDS011;4080;42.676;23.372;2023-12-20T10:29:59;94.03;;;52.10;;
8074;SDS011;4080;42.676;23.372;2023-12-20T10:32:26;87.87;;;46.57;;
8074;SDS011;4080;42.676;23.372;2023-12-20T10:34:54;87.57;;;46.90;;
8074;SDS011;4080;42.676;23.372;2023-12-20T10:37:21;82.90;;;46.60;;
8074;SDS011;4080;42.676;23.372;2023-12-20T10:39:50;83.43;;;45.50;;
8074;SDS011;4080;42.676;23.372;2023-12-20T10:42:21;82.70;;;47.00;;
8074;SDS011;4080;42.676;23.372;2023-12-20T10:44:49;81.70;;;46.90;;
8074;SDS011;4080;42.676;23.372;2023-12-20T10:47:16;84.73;;;47.60;;
8074;SDS011;4080;42.676;23.372;2023-12-20T10:49:44;89.10;;;47.93;;
8074;SDS011;4080;42.676;23.372;2023-12-20T10:52:11;80.47;;;46.43;;
8074;SDS011;4080;42.676;23.372;2023-12-20T10:54:39;83.07;;;46.00;;
8074;SDS011;4080;42.676;23.372;2023-12-20T10:57:07;85.40;;;46.63;;
8074;SDS011;4080;42.676;23.372;2023-12-20T10:59:35;89.60;;;48.17;;
8074;SDS011;4080;42.676;23.372;2023-12-20T11:02:03;83.07;;;46.90;;
8074;SDS011;4080;42.676;23.372;2023-12-20T11:04:35;86.37;;;46.00;;
8074;SDS011;4080;42.676;23.372;2023-12-20T11:07:08;81.70;;;45.93;;
8074;SDS011;4080;42.676;23.372;2023-12-20T11:09:48;81.43;;;45.80;;
8074;SDS011;4080;42.676;23.372;2023-12-20T11:12:32;82.53;;;45.20;;
8074;SDS011;4080;42.676;23.372;2023-12-20T11:15:05;79.63;;;44.40;;
8074;SDS011;4080;42.676;23.372;2023-12-20T11:17:33;78.67;;;44.83;;
8074;SDS011;4080;42.676;23.372;2023-12-20T11:20:04;77.03;;;43.53;;
8074;SDS011;4080;42.676;23.372;2023-12-20T11:22:39;80.07;;;46.70;;
8074;SDS011;4080;42.676;23.372;2023-12-20T11:25:17;80.30;;;48.00;;
8074;SDS011;4080;42.676;23.372;2023-12-20T11:28:06;82.53;;;48.77;;
8074;SDS011;4080;42.676;23.372;2023-12-20T11:30:40;97.27;;;59.00;;
8074;SDS011;4080;42.676;23.372;2023-12-20T11:33:07;85.63;;;51.50;;
8074;SDS011;4080;42.676;23.372;2023-12-20T11:35:34;80.80;;;48.87;;
8074;SDS011;4080;42.676;23.372;2023-12-20T11:38:02;88.83;;;50.23;;
8074;SDS011;4080;42.676;23.372;2023-12-20T11:40:29;91.27;;;52.33;;
8074;SDS011;4080;42.676;23.372;2023-12-20T11:43:02;96.87;;;54.27;;
8074;SDS011;4080;42.676;23.372;2023-12-20T11:45:30;101.83;;;55.00;;
8074;SDS011;4080;42.676;23.372;2023-12-20T11:47:57;92.50;;;53.60;;
8074;SDS011;4080;42.676;23.372;2023-12-20T11:50:24;102.30;;;56.93;;
8074;SDS011;4080;42.676;23.372;2023-12-20T11:52:52;100.47;;;55.27;;
8074;SDS011;4080;42.676;23.372;2023-12-20T11:55:20;97.07;;;52.73;;
8074;SDS011;4080;42.676;23.372;2023-12-20T11:57:47;92.53;;;49.07;;
8074;SDS011;4080;42.676;23.372;2023-12-20T12:00:16;104.53;;;54.40;;
8074;SDS011;4080;42.676;23.372;2023-12-20T12:02:54;101.97;;;52.60;;
8074;SDS011;4080;42.676;23.372;2023-12-20T12:05:21;99.80;;;50.30;;
8074;SDS011;4080;42.676;23.372;2023-12-20T12:07:48;109.70;;;52.73;;
8074;SDS011;4080;42.676;23.372;2023-12-20T12:10:15;106.67;;;52.60;;
8074;SDS011;4080;42.676;23.372;2023-12-20T12:12:42;108.60;;;53.07;;
8074;SDS011;4080;42.676;23.372;2023-12-20T12:15:09;114.10;;;53.57;;
8074;SDS011;4080;42.676;23.372;2023-12-20T12:17:38;105.37;;;52.87;;
8074;SDS011;4080;42.676;23.372;2023-12-20T12:20:05;107.03;;;51.50;;
8074;SDS011;4080;42.676;23.372;2023-12-20T12:22:33;109.53;;;52.60;;
8074;SDS011;4080;42.676;23.372;2023-12-20T12:25:09;114.23;;;54.30;;
8074;SDS011;4080;42.676;23.372;2023-12-20T12:27:37;102.50;;;51.23;;
8074;SDS011;4080;42.676;23.372;2023-12-20T12:30:05;109.10;;;54.93;;
8074;SDS011;4080;42.676;23.372;2023-12-20T12:32:33;102.13;;;53.17;;
8074;SDS011;4080;42.676;23.372;2023-12-20T12:35:02;109.30;;;54.10;;
8074;SDS011;4080;42.676;23.372;2023-12-20T12:37:31;108.30;;;54.07;;
8074;SDS011;4080;42.676;23.372;2023-12-20T12:40:00;107.43;;;52.57;;
8074;SDS011;4080;42.676;23.372;2023-12-20T12:42:27;107.27;;;55.03;;
8074;SDS011;4080;42.676;23.372;2023-12-20T12:44:54;103.63;;;52.63;;
8074;SDS011;4080;42.676;23.372;2023-12-20T12:47:21;101.80;;;52.37;;
8074;SDS011;4080;42.676;23.372;2023-12-20T12:49:49;107.33;;;53.47;;
8074;SDS011;4080;42.676;23.372;2023-12-20T12:52:19;101.80;;;52.40;;
8074;SDS011;4080;42.676;23.372;2023-12-20T12:54:46;110.33;;;53.90;;
8074;SDS011;4080;42.676;23.372;2023-12-20T12:57:13;116.10;;;55.00;;
8074;SDS011;4080;42.676;23.372;2023-12-20T12:59:41;111.30;;;50.80;;
8074;SDS011;4080;42.676;23.372;2023-12-20T13:02:09;107.93;;;51.77;;
8074;SDS011;4080;42.676;23.372;2023-12-20T13:04:36;99.53;;;51.57;;
8074;SDS011;4080;42.676;23.372;2023-12-20T13:07:03;108.83;;;54.40;;
8074;SDS011;4080;42.676;23.372;2023-12-20T13:09:31;154.77;;;58.27;;
8074;SDS011;4080;42.676;23.372;2023-12-20T13:11:58;124.23;;;55.83;;
8074;SDS011;4080;42.676;23.372;2023-12-20T13:14:28;241.70;;;59.33;;
8074;SDS011;4080;42.676;23.372;2023-12-20T13:16:55;126.13;;;55.27;;
8074;SDS011;4080;42.676;23.372;2023-12-20T13:19:22;125.17;;;47.13;;
8074;SDS011;4080;42.676;23.372;2023-12-20T13:21:48;135.63;;;49.70;;
8074;SDS011;4080;42.676;23.372;2023-12-20T13:24:15;121.23;;;48.53;;
8074;SDS011;4080;42.676;23.372;2023-12-20T13:26:45;124.47;;;51.57;;
8074;SDS011;4080;42.676;23.372;2023-12-20T13:29:12;108.97;;;48.27;;
8074;SDS011;4080;42.676;23.372;2023-12-20T13:31:39;124.70;;;43.57;;
8074;SDS011;4080;42.676;23.372;2023-12-20T13:34:06;145.33;;;46.03;;
8074;SDS011;4080;42.676;23.372;2023-12-20T13:36:33;138.23;;;46.00;;
8074;SDS011;4080;42.676;23.372;2023-12-20T13:39:01;93.30;;;41.90;;
8074;SDS011;4080;42.676;23.372;2023-12-20T13:41:30;145.73;;;47.63;;
8074;SDS011;4080;42.676;23.372;2023-12-20T13:43:58;106.00;;;47.67;;
8074;SDS011;4080;42.676;23.372;2023-12-20T13:46:26;137.73;;;43.17;;
8074;SDS011;4080;42.676;23.372;2023-12-20T13:48:53;184.47;;;41.17;;
8074;SDS011;4080;42.676;23.372;2023-12-20T13:51:20;85.53;;;40.53;;
8074;SDS011;4080;42.676;23.372;2023-12-20T13:53:47;99.27;;;37.43;;
8074;SDS011;4080;42.676;23.372;2023-12-20T13:56:14;91.53;;;41.37;;
8074;SDS011;4080;42.676;23.372;2023-12-20T13:58:43;136.27;;;41.20;;
8074;SDS011;4080;42.676;23.372;2023-12-20T14:01:13;194.40;;;42.57;;
8074;SDS011;4080;42.676;23.372;2023-12-20T14:03:40;86.90;;;40.00;;
8074;SDS011;4080;42.676;23.372;2023-12-20T14:06:07;99.50;;;45.03;;
8074;SDS011;4080;42.676;23.372;2023-12-20T14:08:34;93.67;;;44.13;;
8074;SDS011;4080;42.676;23.372;2023-12-20T14:11:01;121.73;;;53.33;;
8074;SDS011;4080;42.676;23.372;2023-12-20T14:13:28;118.23;;;42.87;;
8074;SDS011;4080;42.676;23.372;2023-12-20T14:15:54;94.70;;;44.07;;
8074;SDS011;4080;42.676;23.372;2023-12-20T14:18:23;102.30;;;46.37;;
8074;SDS011;4080;42.676;23.372;2023-12-20T14:20:50;102.47;;;45.70;;
8074;SDS011;4080;42.676;23.372;2023-12-20T14:23:17;113.80;;;47.70;;
8074;SDS011;4080;42.676;23.372;2023-12-20T14:25:44;118.23;;;48.60;;
8074;SDS011;4080;42.676;23.372;2023-12-20T14:28:11;112.57;;;48.00;;
8074;SDS011;4080;42.676;23.372;2023-12-20T14:30:39;126.63;;;52.40;;